createdAt,value
2023-05-24T00:00:22.295Z,62.47
2023-05-24T00:01:48.764Z,62.65
2023-05-24T00:02:55.287Z,63.16
2023-05-24T00:04:01.972Z,63.55
2023-05-24T00:05:10.995Z,63.83
2023-05-24T00:06:17.152Z,63.97
2023-05-24T00:07:23.563Z,63.93
2023-05-24T00:08:29.848Z,63.84
2023-05-24T00:09:35.905Z,64.75
2023-05-24T00:10:42.376Z,64.86
2023-05-24T00:11:48.934Z,64.55
2023-05-24T00:12:55.569Z,65.02
2023-05-24T00:14:01.696Z,65.24
2023-05-24T00:15:10.952Z,65.24
2023-05-24T00:16:17.229Z,65.62
2023-05-24T00:17:25.432Z,65.39
2023-05-24T00:18:31.475Z,65.48
2023-05-24T00:19:39.521Z,65.61
2023-05-24T00:20:46.431Z,65.89
2023-05-24T00:21:53.562Z,65.89
2023-05-24T00:23:00.284Z,65.95
2023-05-24T00:24:07.125Z,66.06
2023-05-24T00:25:13.702Z,66.41
2023-05-24T00:26:19.506Z,66.48
2023-05-24T00:27:25.582Z,66.53
2023-05-24T00:28:32.184Z,66.27
2023-05-24T00:29:38.347Z,66.18
2023-05-24T00:30:44.440Z,66.20
2023-05-24T00:31:51.074Z,66.25
2023-05-24T00:32:57.537Z,66.34
2023-05-24T00:34:03.405Z,66.31
2023-05-24T00:35:10.774Z,66.53
2023-05-24T00:36:16.654Z,67.02
2023-05-24T00:37:23.431Z,67.38
2023-05-24T00:38:29.420Z,67.74
2023-05-24T00:39:35.781Z,68.30
2023-05-24T00:40:42.059Z,68.04
2023-05-24T00:42:06.527Z,67.76
2023-05-24T00:43:12.462Z,67.48
2023-05-24T00:44:19.299Z,67.49
2023-05-24T00:45:25.612Z,67.21
2023-05-24T00:46:35.252Z,67.28
2023-05-24T00:47:44.139Z,66.94
2023-05-24T00:48:54.729Z,66.94
2023-05-24T00:50:03.127Z,66.84
2023-05-24T00:51:09.291Z,66.84
2023-05-24T00:52:18.366Z,66.77
2023-05-24T00:53:26.132Z,66.70
2023-05-24T00:54:32.736Z,66.99
2023-05-24T00:55:42.891Z,67.15
2023-05-24T00:56:51.262Z,67.12
2023-05-24T00:57:59.052Z,67.21
2023-05-24T00:59:06.564Z,67.10
2023-05-24T01:00:16.068Z,66.91
2023-05-24T01:01:26.049Z,67.15
2023-05-24T01:02:34.175Z,67.67
2023-05-24T01:03:41.855Z,67.43
2023-05-24T01:04:49.179Z,67.39
2023-05-24T01:05:55.464Z,67.56
2023-05-24T01:07:18.269Z,67.46
2023-05-24T01:08:40.343Z,67.47
2023-05-24T01:10:00.651Z,67.25
2023-05-24T01:11:18.707Z,67.34
2023-05-24T01:12:32.581Z,67.76
2023-05-24T01:13:49.207Z,67.92
2023-05-24T01:15:11.271Z,68.39
2023-05-24T01:16:22.761Z,68.11
2023-05-24T01:17:38.126Z,68.09
2023-05-24T01:18:53.782Z,68.09
2023-05-24T01:20:08.356Z,68.19
2023-05-24T01:21:28.874Z,68.87
2023-05-24T01:23:14.859Z,68.78
2023-05-24T01:24:31.993Z,68.90
2023-05-24T01:26:17.787Z,69.11
2023-05-24T01:27:25.730Z,69.12
2023-05-24T01:28:36.453Z,69.13
2023-05-24T01:29:44.042Z,69.29
2023-05-24T01:30:52.547Z,69.34
2023-05-24T01:31:58.810Z,69.43
2023-05-24T01:33:05.823Z,69.77
2023-05-24T01:34:13.445Z,69.63
2023-05-24T01:35:20.076Z,69.63
2023-05-24T01:36:26.325Z,69.73
2023-05-24T01:37:32.091Z,70.16
2023-05-24T01:38:39.500Z,69.98
2023-05-24T01:39:46.872Z,70.09
2023-05-24T01:41:00.194Z,70.04
2023-05-24T01:42:18.178Z,70.10
2023-05-24T01:43:38.261Z,70.23
2023-05-24T01:44:49.219Z,70.49
2023-05-24T01:46:03.781Z,70.39
2023-05-24T01:47:28.838Z,70.48
2023-05-24T01:48:47.264Z,70.73
2023-05-24T01:50:04.775Z,70.55
2023-05-24T01:51:12.260Z,70.75
2023-05-24T01:52:23.268Z,70.76
2023-05-24T01:53:35.156Z,70.83
2023-05-24T01:54:51.736Z,71.13
2023-05-24T01:56:00.188Z,71.13
2023-05-24T01:57:10.482Z,71.72
2023-05-24T01:58:21.696Z,71.77
2023-05-24T01:59:30.617Z,71.51
2023-05-24T02:00:39.268Z,71.53
2023-05-24T02:01:47.718Z,71.24
2023-05-24T02:02:54.543Z,70.83
2023-05-24T02:04:02.737Z,71.12
2023-05-24T02:05:12.407Z,71.01
2023-05-24T02:06:18.545Z,70.88
2023-05-24T02:07:24.710Z,70.85
2023-05-24T02:08:30.608Z,70.90
2023-05-24T02:09:37.120Z,71.03
2023-05-24T02:10:43.515Z,71.12
2023-05-24T02:11:49.820Z,70.96
2023-05-24T02:12:56.510Z,71.13
2023-05-24T02:14:02.586Z,71.17
2023-05-24T02:15:15.002Z,71.27
2023-05-24T02:16:24.085Z,71.33
2023-05-24T02:17:33.338Z,71.40
2023-05-24T02:18:38.112Z,71.69
2023-05-24T02:19:48.061Z,71.36
2023-05-24T02:20:54.586Z,71.70
2023-05-24T02:22:04.941Z,71.76
2023-05-24T02:23:10.838Z,71.78
2023-05-24T02:24:19.388Z,71.66
2023-05-24T02:25:25.723Z,71.63
2023-05-24T02:26:32.132Z,71.56
2023-05-24T02:27:37.899Z,71.60
2023-05-24T02:28:43.738Z,71.82
2023-05-24T02:29:51.226Z,72.27
2023-05-24T02:30:57.246Z,71.95
2023-05-24T02:32:03.682Z,71.92
2023-05-24T02:33:09.588Z,72.04
2023-05-24T02:34:16.427Z,72.02
2023-05-24T02:35:23.689Z,71.85
2023-05-24T02:36:29.817Z,71.94
2023-05-24T02:37:36.402Z,72.21
2023-05-24T02:38:44.442Z,72.42
2023-05-24T02:39:50.903Z,72.67
2023-05-24T02:41:00.756Z,72.61
2023-05-24T02:42:09.062Z,72.79
2023-05-24T02:43:16.038Z,72.99
2023-05-24T02:44:22.204Z,72.54
2023-05-24T02:45:27.948Z,72.60
2023-05-24T02:46:36.596Z,72.44
2023-05-24T02:47:42.669Z,72.54
2023-05-24T02:48:50.509Z,72.48
2023-05-24T02:49:56.798Z,72.22
2023-05-24T02:51:03.972Z,72.15
2023-05-24T02:52:12.938Z,72.06
2023-05-24T02:53:18.891Z,72.06
2023-05-24T02:54:24.729Z,72.04
2023-05-24T02:55:33.384Z,72.06
2023-05-24T02:56:40.738Z,72.25
2023-05-24T02:57:48.262Z,72.02
2023-05-24T02:58:54.335Z,71.96
2023-05-24T03:00:01.202Z,71.78
2023-05-24T03:01:08.709Z,71.80
2023-05-24T03:02:16.299Z,71.82
2023-05-24T03:03:23.183Z,71.99
2023-05-24T03:04:29.137Z,72.09
2023-05-24T03:05:34.885Z,71.92
2023-05-24T03:06:41.515Z,71.75
2023-05-24T03:07:47.716Z,71.63
2023-05-24T03:08:53.928Z,71.56
2023-05-24T03:10:00.379Z,71.33
2023-05-24T03:11:10.553Z,71.49
2023-05-24T03:12:16.373Z,71.35
2023-05-24T03:13:22.754Z,71.42
2023-05-24T03:14:29.451Z,71.20
2023-05-24T03:15:35.770Z,71.16
2023-05-24T03:16:43.000Z,71.06
2023-05-24T03:17:49.716Z,70.95
2023-05-24T03:18:56.569Z,70.94
2023-05-24T03:20:06.376Z,70.75
2023-05-24T03:21:11.031Z,70.78
2023-05-24T03:22:17.321Z,70.76
2023-05-24T03:23:23.842Z,70.79
2023-05-24T03:24:30.012Z,70.58
2023-05-24T03:25:35.930Z,70.50
2023-05-24T03:26:42.069Z,70.37
2023-05-24T03:27:48.470Z,70.25
2023-05-24T03:28:55.038Z,70.06
2023-05-24T03:30:01.769Z,69.96
2023-05-24T03:31:09.365Z,69.67
2023-05-24T03:32:15.742Z,69.59
2023-05-24T03:33:22.192Z,69.48
2023-05-24T03:34:28.066Z,69.40
2023-05-24T03:35:36.031Z,69.17
2023-05-24T03:36:42.325Z,69.08
2023-05-24T03:37:48.221Z,68.97
2023-05-24T03:38:58.417Z,68.78
2023-05-24T03:40:10.475Z,68.59
2023-05-24T03:41:16.820Z,68.46
2023-05-24T03:42:22.729Z,68.34
2023-05-24T03:43:29.573Z,68.20
2023-05-24T03:44:36.326Z,68.07
2023-05-24T03:45:42.421Z,67.97
2023-05-24T03:46:48.975Z,67.85
2023-05-24T03:47:55.074Z,67.72
2023-05-24T03:49:01.101Z,67.64
2023-05-24T03:50:08.863Z,67.50
2023-05-24T03:51:14.967Z,67.37
2023-05-24T03:52:21.708Z,67.21
2023-05-24T03:53:27.540Z,67.21
2023-05-24T03:54:33.516Z,67.08
2023-05-24T03:55:40.199Z,67.02
2023-05-24T03:56:46.619Z,66.85
2023-05-24T03:57:52.490Z,66.89
2023-05-24T03:59:01.884Z,66.86
2023-05-24T04:00:14.088Z,66.67
2023-05-24T04:01:32.698Z,66.63
2023-05-24T04:02:44.399Z,66.51
2023-05-24T04:03:52.080Z,66.38
2023-05-24T04:04:58.016Z,66.35
2023-05-24T04:06:04.506Z,66.33
2023-05-24T04:07:12.290Z,66.27
2023-05-24T04:08:18.938Z,66.13
2023-05-24T04:09:24.834Z,66.13
2023-05-24T04:10:31.691Z,66.00
2023-05-24T04:11:37.619Z,65.84
2023-05-24T04:12:47.538Z,65.83
2023-05-24T04:13:57.914Z,65.60
2023-05-24T04:15:04.863Z,65.52
2023-05-24T04:16:14.617Z,65.36
2023-05-24T04:17:25.612Z,65.29
2023-05-24T04:18:32.454Z,65.03
2023-05-24T04:19:41.027Z,64.81
2023-05-24T04:20:48.591Z,64.78
2023-05-24T04:21:54.566Z,64.64
2023-05-24T04:23:00.913Z,64.63
2023-05-24T04:24:08.409Z,64.62
2023-05-24T04:25:15.087Z,64.45
2023-05-24T04:26:22.960Z,64.37
2023-05-24T04:27:30.274Z,64.26
2023-05-24T04:28:36.489Z,64.20
2023-05-24T04:29:45.707Z,64.05
2023-05-24T04:30:55.379Z,64.20
2023-05-24T04:32:01.965Z,63.98
2023-05-24T04:33:08.566Z,63.81
2023-05-24T04:34:14.804Z,63.74
2023-05-24T04:35:22.092Z,63.32
2023-05-24T04:36:29.307Z,63.41
2023-05-24T04:37:36.636Z,63.16
2023-05-24T04:38:43.104Z,62.88
2023-05-24T04:39:49.877Z,62.79
2023-05-24T04:40:59.540Z,62.74
2023-05-24T04:42:06.431Z,62.39
2023-05-24T04:43:12.628Z,62.18
2023-05-24T04:44:18.869Z,61.96
2023-05-24T04:45:25.171Z,61.48
2023-05-24T04:46:32.069Z,60.84
2023-05-24T04:47:38.213Z,60.78
2023-05-24T04:48:45.005Z,60.46
2023-05-24T04:49:51.978Z,60.22
2023-05-24T04:51:01.131Z,60.06
2023-05-24T04:52:09.417Z,59.85
2023-05-24T04:53:15.220Z,60.01
2023-05-24T04:54:21.267Z,59.60
2023-05-24T04:55:27.822Z,59.71
2023-05-24T04:56:33.544Z,59.55
2023-05-24T04:57:41.387Z,59.49
2023-05-24T04:58:48.920Z,59.61
2023-05-24T04:59:55.494Z,59.62
2023-05-24T05:01:02.857Z,59.47
2023-05-24T05:02:09.232Z,59.42
2023-05-24T05:03:16.797Z,59.13
2023-05-24T05:04:23.583Z,58.58
2023-05-24T05:05:29.655Z,58.51
2023-05-24T05:06:39.193Z,58.36
2023-05-24T05:07:45.450Z,58.41
2023-05-24T05:08:52.104Z,58.58
2023-05-24T05:09:58.630Z,58.23
2023-05-24T05:11:05.383Z,57.83
2023-05-24T05:12:11.566Z,57.97
2023-05-24T05:13:18.155Z,57.78
2023-05-24T05:14:24.417Z,57.46
2023-05-24T05:15:31.243Z,57.43
2023-05-24T05:16:37.843Z,57.05
2023-05-24T05:17:44.696Z,56.84
2023-05-24T05:18:51.941Z,56.50
2023-05-24T05:19:58.057Z,56.48
2023-05-24T05:21:04.737Z,56.24
2023-05-24T05:22:11.104Z,56.25
2023-05-24T05:23:16.895Z,56.19
2023-05-24T05:24:23.464Z,55.96
2023-05-24T05:25:31.102Z,55.96
2023-05-24T05:26:37.480Z,55.96
2023-05-24T05:27:43.962Z,55.93
2023-05-24T05:28:50.585Z,55.80
2023-05-24T05:29:57.287Z,55.69
2023-05-24T05:31:03.113Z,55.42
2023-05-24T05:32:10.459Z,55.21
2023-05-24T05:33:16.833Z,55.13
2023-05-24T05:34:23.091Z,55.02
2023-05-24T05:35:29.502Z,54.86
2023-05-24T05:36:40.801Z,54.86
2023-05-24T05:37:47.396Z,54.72
2023-05-24T05:38:54.789Z,54.67
2023-05-24T05:40:01.183Z,54.66
2023-05-24T05:41:07.403Z,54.69
2023-05-24T05:42:13.671Z,54.36
2023-05-24T05:43:19.774Z,54.56
2023-05-24T05:44:25.770Z,54.42
2023-05-24T05:45:31.798Z,54.43
2023-05-24T05:46:37.998Z,54.46
2023-05-24T05:47:45.280Z,54.46
2023-05-24T05:48:51.673Z,54.40
2023-05-24T05:49:57.508Z,54.35
2023-05-24T05:51:04.112Z,54.22
2023-05-24T05:52:10.967Z,54.32
2023-05-24T05:53:17.693Z,54.46
2023-05-24T05:54:24.003Z,54.30
2023-05-24T05:55:30.395Z,54.34
2023-05-24T05:56:46.137Z,54.25
2023-05-24T05:57:51.988Z,54.23
2023-05-24T05:58:58.339Z,54.21
2023-05-24T06:00:07.745Z,54.04
2023-05-24T06:01:14.280Z,54.10
2023-05-24T06:02:22.851Z,53.81
2023-05-24T06:03:29.148Z,53.62
2023-05-24T06:04:35.347Z,53.40
2023-05-24T06:05:42.297Z,53.39
2023-05-24T06:06:50.721Z,53.40
2023-05-24T06:07:56.724Z,53.38
2023-05-24T06:09:03.035Z,53.10
2023-05-24T06:10:12.274Z,52.95
2023-05-24T06:11:17.079Z,53.02
2023-05-24T06:12:22.963Z,52.83
2023-05-24T06:13:31.243Z,52.72
2023-05-24T06:14:39.641Z,52.62
2023-05-24T06:15:45.395Z,52.69
2023-05-24T06:16:53.548Z,52.95
2023-05-24T06:18:03.661Z,52.93
2023-05-24T06:19:09.742Z,52.84
2023-05-24T06:20:17.388Z,52.72
2023-05-24T06:21:23.758Z,52.77
2023-05-24T06:22:30.076Z,52.64
2023-05-24T06:23:36.648Z,52.44
2023-05-24T06:24:44.504Z,52.59
2023-05-24T06:25:50.867Z,52.62
2023-05-24T06:26:57.135Z,52.54
2023-05-24T06:28:03.587Z,52.46
2023-05-24T06:29:09.857Z,52.49
2023-05-24T06:30:16.793Z,52.22
2023-05-24T06:31:23.093Z,51.77
2023-05-24T06:32:29.786Z,51.13
2023-05-24T06:33:37.787Z,51.46
2023-05-24T06:34:44.764Z,50.57
2023-05-24T06:35:51.445Z,50.62
2023-05-24T06:36:58.195Z,50.78
2023-05-24T06:38:04.542Z,50.75
2023-05-24T06:39:11.017Z,50.52
2023-05-24T06:40:17.490Z,50.72
2023-05-24T06:41:23.834Z,50.88
2023-05-24T06:42:30.247Z,51.14
2023-05-24T06:43:36.248Z,51.36
2023-05-24T06:44:42.833Z,51.02
2023-05-24T06:45:50.160Z,51.01
2023-05-24T06:46:57.475Z,50.55
2023-05-24T06:48:03.835Z,50.14
2023-05-24T06:49:10.422Z,50.01
2023-05-24T06:50:17.271Z,50.17
2023-05-24T06:51:23.845Z,50.28
2023-05-24T06:52:29.803Z,50.33
2023-05-24T06:53:36.596Z,50.17
2023-05-24T06:54:42.768Z,49.71
2023-05-24T06:55:49.601Z,49.52
2023-05-24T06:56:58.637Z,49.82
2023-05-24T06:58:07.444Z,49.64
2023-05-24T06:59:13.776Z,48.92
2023-05-24T07:00:22.886Z,48.89
2023-05-24T07:01:29.592Z,48.64
2023-05-24T07:02:36.209Z,48.49
2023-05-24T07:03:43.001Z,47.99
2023-05-24T07:04:48.804Z,47.93
2023-05-24T07:05:55.380Z,48.15
2023-05-24T07:07:02.935Z,48.24
2023-05-24T07:08:09.657Z,48.12
2023-05-24T07:09:16.767Z,47.73
2023-05-24T07:10:22.890Z,47.51
2023-05-24T07:11:29.159Z,47.96
2023-05-24T07:12:35.505Z,48.17
2023-05-24T07:13:42.293Z,47.74
2023-05-24T07:14:49.557Z,47.42
2023-05-24T07:15:56.966Z,47.46
2023-05-24T07:17:03.408Z,47.54
2023-05-24T07:18:10.563Z,47.38
2023-05-24T07:19:17.019Z,47.28
2023-05-24T07:20:23.282Z,47.25
2023-05-24T07:21:29.806Z,46.34
2023-05-24T07:22:36.316Z,46.16
2023-05-24T07:23:42.517Z,46.21
2023-05-24T07:24:48.264Z,46.07
2023-05-24T07:25:54.448Z,45.93
2023-05-24T07:27:02.954Z,45.78
2023-05-24T07:28:09.296Z,45.97
2023-05-24T07:29:16.052Z,45.87
2023-05-24T07:30:31.607Z,45.67
2023-05-24T07:31:40.103Z,45.05
2023-05-24T07:32:46.788Z,44.05
2023-05-24T07:33:53.069Z,44.45
2023-05-24T07:34:59.515Z,44.68
2023-05-24T07:36:08.964Z,44.80
2023-05-24T07:37:14.947Z,44.79
2023-05-24T07:38:21.651Z,44.79
2023-05-24T07:39:28.586Z,44.72
2023-05-24T07:40:36.025Z,44.58
2023-05-24T07:41:42.377Z,44.78
2023-05-24T07:42:48.950Z,44.49
2023-05-24T07:43:57.481Z,44.35
2023-05-24T07:45:03.718Z,42.82
2023-05-24T07:46:10.550Z,42.65
2023-05-24T07:47:17.456Z,42.72
2023-05-24T07:48:24.022Z,42.62
2023-05-24T07:49:33.370Z,42.82
2023-05-24T07:50:39.794Z,42.21
2023-05-24T07:51:47.057Z,42.10
2023-05-24T07:52:53.218Z,42.70
2023-05-24T07:53:59.702Z,42.36
2023-05-24T07:55:08.690Z,42.05
2023-05-24T07:56:15.676Z,41.15
2023-05-24T07:57:23.274Z,41.28
2023-05-24T07:58:30.078Z,41.28
2023-05-24T07:59:36.294Z,41.23
2023-05-24T08:00:42.644Z,41.45
2023-05-24T08:01:48.519Z,41.00
2023-05-24T08:02:54.680Z,40.98
2023-05-24T08:04:01.711Z,40.54
2023-05-24T08:05:13.885Z,40.33
2023-05-24T08:06:20.264Z,40.20
2023-05-24T08:07:27.801Z,40.21
2023-05-24T08:08:34.706Z,40.18
2023-05-24T08:09:41.966Z,39.79
2023-05-24T08:10:48.068Z,40.13
2023-05-24T08:11:54.375Z,40.07
2023-05-24T08:13:01.550Z,39.75
2023-05-24T08:14:07.539Z,39.37
2023-05-24T08:15:13.624Z,39.14
2023-05-24T08:16:20.206Z,39.01
2023-05-24T08:17:26.958Z,38.71
2023-05-24T08:18:33.490Z,38.63
2023-05-24T08:19:39.738Z,38.59
2023-05-24T08:20:46.226Z,38.71
2023-05-24T08:21:53.942Z,38.63
2023-05-24T08:22:59.865Z,38.76
2023-05-24T08:24:09.123Z,38.20
2023-05-24T08:25:16.784Z,37.97
2023-05-24T08:26:25.242Z,38.07
2023-05-24T08:27:31.273Z,37.98
2023-05-24T08:28:39.727Z,38.13
2023-05-24T08:29:45.819Z,38.23
2023-05-24T08:30:52.238Z,38.15
2023-05-24T08:31:58.842Z,38.11
2023-05-24T08:33:05.646Z,38.20
2023-05-24T08:34:13.887Z,37.52
2023-05-24T08:35:21.615Z,37.50
2023-05-24T08:36:28.067Z,37.98
2023-05-24T08:37:34.372Z,38.02
2023-05-24T08:38:40.769Z,37.85
2023-05-24T08:39:47.188Z,37.82
2023-05-24T08:40:53.801Z,37.48
2023-05-24T08:42:09.162Z,36.26
2023-05-24T08:43:16.970Z,36.01
2023-05-24T08:44:26.104Z,35.98
2023-05-24T08:45:37.457Z,36.30
2023-05-24T08:46:43.960Z,35.79
2023-05-24T08:47:53.167Z,36.26
2023-05-24T08:49:05.295Z,36.35
2023-05-24T08:50:12.864Z,36.69
2023-05-24T08:51:20.912Z,36.52
2023-05-24T08:52:28.343Z,36.81
2023-05-24T08:53:37.701Z,36.45
2023-05-24T08:54:46.144Z,36.32
2023-05-24T08:55:54.271Z,35.86
2023-05-24T08:57:02.006Z,35.03
2023-05-24T08:58:09.942Z,35.41
2023-05-24T08:59:18.350Z,35.61
2023-05-24T09:00:26.584Z,34.76
2023-05-24T09:01:34.628Z,35.14
2023-05-24T09:02:44.043Z,35.21
2023-05-24T09:03:51.088Z,35.18
2023-05-24T09:05:02.502Z,34.92
2023-05-24T09:06:12.120Z,34.83
2023-05-24T09:07:20.213Z,34.17
2023-05-24T09:08:28.171Z,34.30
2023-05-24T09:09:38.199Z,34.52
2023-05-24T09:10:54.153Z,34.31
2023-05-24T09:12:05.354Z,33.74
2023-05-24T09:13:15.972Z,32.78
2023-05-24T09:14:22.673Z,30.76
2023-05-24T09:15:30.055Z,30.68
2023-05-24T09:16:37.269Z,31.12
2023-05-24T09:17:44.325Z,31.23
2023-05-24T09:18:51.589Z,31.88
2023-05-24T09:19:58.607Z,31.82
2023-05-24T09:21:05.104Z,31.52
2023-05-24T09:22:15.288Z,31.87
2023-05-24T09:23:25.036Z,31.40
2023-05-24T09:24:32.258Z,30.37
2023-05-24T09:25:43.846Z,31.30
2023-05-24T09:26:52.950Z,32.22
2023-05-24T09:27:59.177Z,32.54
2023-05-24T09:29:09.579Z,31.35
2023-05-24T09:30:18.342Z,29.75
2023-05-24T09:31:34.640Z,29.66
2023-05-24T09:32:41.415Z,30.38
2023-05-24T09:33:52.274Z,29.94
2023-05-24T09:35:00.390Z,30.21
2023-05-24T09:36:09.974Z,29.95
2023-05-24T09:37:18.256Z,29.36
2023-05-24T09:38:26.616Z,28.98
2023-05-24T09:39:33.333Z,28.19
2023-05-24T09:40:41.192Z,28.07
2023-05-24T09:41:57.926Z,27.91
2023-05-24T09:43:10.601Z,27.13
2023-05-24T09:44:19.643Z,27.59
2023-05-24T09:45:27.034Z,27.31
2023-05-24T09:46:38.975Z,27.43
2023-05-24T09:47:49.092Z,27.13
2023-05-24T09:49:04.653Z,27.07
2023-05-24T09:50:14.986Z,27.33
2023-05-24T09:51:24.930Z,27.62
2023-05-24T09:52:33.193Z,27.21
2023-05-24T09:53:49.010Z,27.37
2023-05-24T09:54:55.758Z,27.52
2023-05-24T09:56:05.412Z,27.54
2023-05-24T09:57:11.648Z,27.41
2023-05-24T09:58:20.098Z,26.85
2023-05-24T09:59:24.896Z,27.08
2023-05-24T10:00:35.279Z,27.11
2023-05-24T10:01:42.162Z,27.38
2023-05-24T10:03:00.098Z,27.72
2023-05-24T10:04:09.924Z,26.56
2023-05-24T10:05:17.541Z,27.16
2023-05-24T10:06:24.144Z,27.44
2023-05-24T10:07:32.115Z,27.48
2023-05-24T10:08:39.312Z,27.56
2023-05-24T10:09:47.244Z,27.75
2023-05-24T10:10:53.851Z,27.41
2023-05-24T10:12:02.579Z,27.16
2023-05-24T10:13:09.170Z,27.70
2023-05-24T10:14:17.138Z,27.60
2023-05-24T10:15:23.348Z,27.76
2023-05-24T10:16:30.780Z,27.83
2023-05-24T10:17:37.732Z,27.72
2023-05-24T10:18:46.360Z,27.71
2023-05-24T10:19:52.427Z,26.88
2023-05-24T10:21:03.520Z,26.74
2023-05-24T10:22:14.138Z,26.11
2023-05-24T10:23:23.878Z,26.21
2023-05-24T10:24:37.609Z,26.72
2023-05-24T10:25:51.248Z,26.84
2023-05-24T10:27:01.445Z,27.52
2023-05-24T10:28:13.183Z,27.04
2023-05-24T10:29:30.167Z,27.40
2023-05-24T10:30:44.366Z,27.54
2023-05-24T10:31:54.858Z,26.62
2023-05-24T10:33:03.164Z,26.57
2023-05-24T10:34:10.436Z,27.38
2023-05-24T10:35:19.360Z,27.04
2023-05-24T10:36:28.951Z,26.13
2023-05-24T10:37:35.883Z,26.43
2023-05-24T10:38:42.830Z,26.21
2023-05-24T10:39:49.469Z,26.47
2023-05-24T10:40:56.120Z,26.23
2023-05-24T10:42:10.188Z,26.11
2023-05-24T10:43:16.793Z,26.04
2023-05-24T10:44:29.281Z,25.92
2023-05-24T10:45:39.930Z,25.59
2023-05-24T10:47:13.606Z,25.57
2023-05-24T10:48:41.795Z,26.04
2023-05-24T10:49:54.607Z,25.59
2023-05-24T10:51:25.328Z,25.05
2023-05-24T10:52:38.023Z,24.96
2023-05-24T10:53:44.973Z,24.29
2023-05-24T10:55:08.731Z,24.73
2023-05-24T10:56:15.393Z,24.51
2023-05-24T10:57:32.559Z,24.83
2023-05-24T10:59:07.798Z,24.75
2023-05-24T11:01:42.826Z,24.51
2023-05-24T11:03:01.648Z,24.69
2023-05-24T11:04:15.755Z,25.12
2023-05-24T11:05:24.052Z,25.37
2023-05-24T11:06:50.618Z,24.73
2023-05-24T11:08:04.356Z,24.57
2023-05-24T11:09:12.657Z,24.77
2023-05-24T11:10:29.787Z,24.76
2023-05-24T11:11:40.264Z,24.73
2023-05-24T11:12:47.202Z,24.59
2023-05-24T11:14:01.865Z,24.10
2023-05-24T11:15:12.005Z,24.46
2023-05-24T11:16:38.693Z,24.60
2023-05-24T11:18:17.191Z,24.27
2023-05-24T11:19:25.208Z,24.92
2023-05-24T11:20:32.839Z,24.75
2023-05-24T11:21:39.526Z,24.23
2023-05-24T11:22:47.002Z,24.24
2023-05-24T11:23:54.085Z,24.14
2023-05-24T11:25:04.653Z,23.92
2023-05-24T11:26:11.232Z,23.99
2023-05-24T11:27:18.617Z,23.90
2023-05-24T11:28:25.539Z,23.76
2023-05-24T11:29:33.566Z,23.70
2023-05-24T11:30:48.666Z,23.47
2023-05-24T11:31:58.142Z,23.31
2023-05-24T11:33:06.039Z,23.21
2023-05-24T11:34:13.767Z,23.11
2023-05-24T11:35:24.450Z,23.33
2023-05-24T11:36:31.251Z,23.25
2023-05-24T11:37:46.321Z,23.87
2023-05-24T11:38:57.281Z,23.75
2023-05-24T11:40:10.152Z,23.22
2023-05-24T11:41:18.812Z,22.95
2023-05-24T11:42:25.470Z,22.40
2023-05-24T11:43:33.246Z,22.70
2023-05-24T11:44:40.275Z,22.85
2023-05-24T11:45:50.292Z,22.87
2023-05-24T11:47:01.229Z,22.93
2023-05-24T11:48:08.290Z,23.20
2023-05-24T11:49:17.398Z,23.23
2023-05-24T11:50:28.791Z,23.43
2023-05-24T11:51:38.931Z,23.43
2023-05-24T11:52:44.903Z,23.06
2023-05-24T11:53:54.758Z,22.33
2023-05-24T11:55:01.566Z,22.34
2023-05-24T11:56:09.630Z,22.37
2023-05-24T11:57:17.245Z,22.26
2023-05-24T11:58:30.920Z,22.36
2023-05-24T11:59:38.778Z,22.17
2023-05-24T12:00:47.135Z,21.88
2023-05-24T12:02:01.209Z,21.74
2023-05-24T12:03:09.414Z,21.52
2023-05-24T12:04:15.700Z,21.65
2023-05-24T12:05:24.083Z,23.30
2023-05-24T12:06:38.554Z,25.02
2023-05-24T12:07:49.033Z,25.56
2023-05-24T12:08:55.464Z,25.71
2023-05-24T12:10:01.566Z,25.96
2023-05-24T12:11:08.079Z,26.22
2023-05-24T12:12:14.217Z,25.67
2023-05-24T12:13:31.745Z,25.40
2023-05-24T12:14:39.292Z,25.21
2023-05-24T12:15:45.603Z,25.34
2023-05-24T12:16:58.637Z,25.47
2023-05-24T12:18:05.280Z,25.50
2023-05-24T12:19:31.416Z,25.35
2023-05-24T12:20:40.559Z,25.46
2023-05-24T12:21:47.311Z,25.51
2023-05-24T12:22:55.114Z,25.47
2023-05-24T12:24:08.888Z,25.65
2023-05-24T12:25:22.747Z,25.70
2023-05-24T12:26:29.112Z,25.95
2023-05-24T12:27:35.579Z,26.45
2023-05-24T12:28:42.009Z,26.64
2023-05-24T12:29:49.111Z,26.50
2023-05-24T12:30:54.947Z,25.92
2023-05-24T12:32:03.755Z,25.53
2023-05-24T12:33:10.266Z,25.39
2023-05-24T12:34:18.850Z,25.29
2023-05-24T12:35:25.948Z,25.39
2023-05-24T12:36:33.080Z,25.26
2023-05-24T12:37:39.809Z,25.46
2023-05-24T12:38:46.269Z,26.19
2023-05-24T12:39:54.664Z,26.12
2023-05-24T12:42:13.996Z,25.70
2023-05-24T12:43:22.970Z,25.90
2023-05-24T12:44:31.404Z,25.68
2023-05-24T12:45:37.671Z,26.55
2023-05-24T12:46:43.551Z,26.28
2023-05-24T12:47:49.800Z,26.39
2023-05-24T12:48:56.278Z,26.22
2023-05-24T12:50:05.120Z,26.15
2023-05-24T12:51:12.345Z,26.11
2023-05-24T12:52:18.603Z,26.06
2023-05-24T12:53:26.252Z,25.90
2023-05-24T12:54:32.363Z,26.00
2023-05-24T12:55:40.422Z,26.12
2023-05-24T12:56:47.475Z,26.03
2023-05-24T12:57:57.324Z,26.15
2023-05-24T12:59:03.338Z,26.42
2023-05-24T13:00:12.400Z,26.41
2023-05-24T13:01:18.660Z,26.14
2023-05-24T13:02:26.863Z,25.71
2023-05-24T13:03:32.794Z,25.89
2023-05-24T13:04:39.171Z,25.62
2023-05-24T13:05:47.468Z,26.15
2023-05-24T13:06:53.883Z,26.00
2023-05-24T13:08:00.631Z,25.47
2023-05-24T13:09:07.033Z,25.29
2023-05-24T13:10:14.364Z,25.13
2023-05-24T13:11:21.961Z,25.02
2023-05-24T13:12:28.868Z,24.69
2023-05-24T13:13:35.573Z,24.14
2023-05-24T13:14:41.778Z,23.86
2023-05-24T13:15:49.852Z,23.95
2023-05-24T13:16:56.360Z,24.23
2023-05-24T13:18:02.839Z,23.96
2023-05-24T13:19:08.893Z,23.56
2023-05-24T13:20:16.272Z,22.41
2023-05-24T13:21:22.585Z,22.07
2023-05-24T13:22:28.440Z,21.75
2023-05-24T13:23:39.378Z,21.45
2023-05-24T13:24:45.233Z,22.05
2023-05-24T13:25:53.202Z,22.06
2023-05-24T13:27:00.088Z,22.09
2023-05-24T13:28:06.718Z,22.14
2023-05-24T13:30:28.631Z,22.62
2023-05-24T13:31:37.212Z,23.09
2023-05-24T13:32:45.559Z,23.14
2023-05-24T13:33:52.122Z,23.31
2023-05-24T13:34:59.265Z,23.20
2023-05-24T13:36:08.343Z,23.25
2023-05-24T13:37:17.291Z,23.32
2023-05-24T13:38:24.000Z,23.09
2023-05-24T13:39:30.195Z,22.82
2023-05-24T13:40:38.868Z,22.58
2023-05-24T13:41:47.400Z,22.98
2023-05-24T13:42:55.722Z,23.19
2023-05-24T13:44:01.799Z,22.92
2023-05-24T13:45:10.659Z,22.55
2023-05-24T13:46:16.760Z,22.48
2023-05-24T13:47:35.215Z,23.10
2023-05-24T13:48:46.083Z,23.53
2023-05-24T13:49:52.311Z,23.83
2023-05-24T13:50:58.366Z,23.66
2023-05-24T13:52:05.195Z,23.94
2023-05-24T13:53:12.290Z,24.25
2023-05-24T13:54:18.291Z,24.36
2023-05-24T13:55:24.783Z,24.86
2023-05-24T13:56:33.195Z,24.97
2023-05-24T13:57:51.317Z,25.65
2023-05-24T13:59:03.059Z,25.57
2023-05-24T14:00:12.578Z,25.71
2023-05-24T14:01:19.689Z,25.74
2023-05-24T14:02:26.865Z,25.68
2023-05-24T14:03:33.686Z,25.89
2023-05-24T14:04:39.793Z,25.93
2023-05-24T14:05:46.235Z,26.20
2023-05-24T14:06:52.758Z,26.58
2023-05-24T14:08:06.301Z,26.55
2023-05-24T14:09:13.372Z,26.63
2023-05-24T14:10:21.591Z,27.00
2023-05-24T14:11:31.667Z,27.35
2023-05-24T14:12:38.152Z,27.50
2023-05-24T14:14:43.146Z,27.89
2023-05-24T14:15:12.610Z,28.78
2023-05-24T14:16:19.800Z,29.03
2023-05-24T14:17:26.133Z,29.96
2023-05-24T14:18:32.484Z,30.71
2023-05-24T14:19:38.639Z,31.84
2023-05-24T14:20:44.822Z,33.09
2023-05-24T14:21:51.341Z,33.05
2023-05-24T14:22:58.532Z,33.48
2023-05-24T14:24:06.787Z,33.22
2023-05-24T14:25:13.089Z,34.18
2023-05-24T14:26:24.117Z,35.09
2023-05-24T14:27:30.723Z,36.27
2023-05-24T14:28:36.880Z,37.27
2023-05-24T14:29:43.633Z,37.87
2023-05-24T14:30:49.637Z,39.15
2023-05-24T14:31:56.781Z,40.05
2023-05-24T14:33:02.865Z,41.67
2023-05-24T14:34:11.033Z,43.36
2023-05-24T14:35:17.840Z,44.35
2023-05-24T14:36:24.589Z,45.48
2023-05-24T14:37:30.755Z,45.29
2023-05-24T14:38:36.790Z,45.24
2023-05-24T14:39:43.884Z,44.72
2023-05-24T14:40:51.329Z,46.07
2023-05-24T14:41:58.745Z,47.00
2023-05-24T14:43:06.032Z,47.59
2023-05-24T14:44:15.183Z,49.26
2023-05-24T14:45:21.854Z,49.41